sensor_id;sensor_type;location;lat;lon;timestamp;pressure;altitude;pressure_sealevel;temperature;humidity
64889;BME280;51386;53.082;8.816;2023-07-08T00:00:41;101998.16;;;24.54;42.34
64889;BME280;51386;53.082;8.816;2023-07-08T00:03:09;101993.03;;;24.53;42.43
64889;BME280;51386;53.082;8.816;2023-07-08T00:05:38;101984.38;;;24.51;42.75
64889;BME280;51386;53.082;8.816;2023-07-08T00:08:08;101989.16;;;24.49;42.46
64889;BME280;51386;53.082;8.816;2023-07-08T00:10:35;101986.69;;;24.47;42.42
64889;BME280;51386;53.082;8.816;2023-07-08T00:13:02;101981.56;;;24.46;42.42
64889;BME280;51386;53.082;8.816;2023-07-08T00:15:32;101984.47;;;24.44;42.60
64889;BME280;51386;53.082;8.816;2023-07-08T00:17:59;101980.38;;;24.42;42.55
64889;BME280;51386;53.082;8.816;2023-07-08T00:20:32;101973.38;;;24.41;42.62
64889;BME280;51386;53.082;8.816;2023-07-08T00:23:00;101981.66;;;24.39;42.62
64889;BME280;51386;53.082;8.816;2023-07-08T00:25:28;101975.47;;;24.39;42.64
64889;BME280;51386;53.082;8.816;2023-07-08T00:27:56;101983.56;;;24.39;42.71
64889;BME280;51386;53.082;8.816;2023-07-08T00:30:26;101981.91;;;24.38;42.71
64889;BME280;51386;53.082;8.816;2023-07-08T00:32:55;101981.09;;;24.37;42.72
64889;BME280;51386;53.082;8.816;2023-07-08T00:35:28;101981.09;;;24.37;42.71
64889;BME280;51386;53.082;8.816;2023-07-08T00:37:56;101977.56;;;24.37;42.55
64889;BME280;51386;53.082;8.816;2023-07-08T00:40:33;101976.41;;;24.33;42.69
64889;BME280;51386;53.082;8.816;2023-07-08T00:43:03;101973.97;;;24.31;42.93
64889;BME280;51386;53.082;8.816;2023-07-08T00:45:39;101978.97;;;24.28;42.57
64889;BME280;51386;53.082;8.816;2023-07-08T00:48:34;101973.25;;;24.24;43.00
64889;BME280;51386;53.082;8.816;2023-07-08T00:51:01;101974.09;;;24.25;42.98
64889;BME280;51386;53.082;8.816;2023-07-08T00:53:31;101974.88;;;24.25;42.91
64889;BME280;51386;53.082;8.816;2023-07-08T00:56:02;101976.16;;;24.22;42.70
64889;BME280;51386;53.082;8.816;2023-07-08T00:58:34;101971.28;;;24.19;43.02
64889;BME280;51386;53.082;8.816;2023-07-08T01:01:05;101966.69;;;24.20;43.00
64889;BME280;51386;53.082;8.816;2023-07-08T01:03:44;101967.41;;;24.15;42.89
64889;BME280;51386;53.082;8.816;2023-07-08T01:06:13;101960.59;;;24.13;42.91
64889;BME280;51386;53.082;8.816;2023-07-08T01:08:40;101970.56;;;24.12;42.76
64889;BME280;51386;53.082;8.816;2023-07-08T01:11:08;101961.09;;;24.10;43.12
64889;BME280;51386;53.082;8.816;2023-07-08T01:13:42;101958.63;;;24.08;43.26
64889;BME280;51386;53.082;8.816;2023-07-08T01:16:12;101962.38;;;24.07;43.13
64889;BME280;51386;53.082;8.816;2023-07-08T01:18:40;101961.97;;;24.04;43.23
64889;BME280;51386;53.082;8.816;2023-07-08T01:21:31;101958.84;;;23.95;43.67
64889;BME280;51386;53.082;8.816;2023-07-08T01:24:04;101956.13;;;23.95;43.47
64889;BME280;51386;53.082;8.816;2023-07-08T01:26:33;101957.19;;;23.94;43.45
64889;BME280;51386;53.082;8.816;2023-07-08T01:29:02;101948.53;;;23.92;43.52
64889;BME280;51386;53.082;8.816;2023-07-08T01:31:30;101948.97;;;23.89;43.36
64889;BME280;51386;53.082;8.816;2023-07-08T01:33:57;101950.28;;;23.87;43.86
64889;BME280;51386;53.082;8.816;2023-07-08T01:36:26;101953.19;;;23.85;43.83
64889;BME280;51386;53.082;8.816;2023-07-08T01:38:56;101953.06;;;23.80;43.81
64889;BME280;51386;53.082;8.816;2023-07-08T01:41:24;101940.91;;;23.78;43.87
64889;BME280;51386;53.082;8.816;2023-07-08T01:43:51;101941.59;;;23.73;44.17
64889;BME280;51386;53.082;8.816;2023-07-08T01:46:23;101932.38;;;23.69;44.27
64889;BME280;51386;53.082;8.816;2023-07-08T01:48:55;101934.47;;;23.67;44.43
64889;BME280;51386;53.082;8.816;2023-07-08T01:51:25;101934.94;;;23.64;44.26
64889;BME280;51386;53.082;8.816;2023-07-08T01:53:53;101937.03;;;23.62;44.20
64889;BME280;51386;53.082;8.816;2023-07-08T01:56:20;101935.88;;;23.58;44.07
64889;BME280;51386;53.082;8.816;2023-07-08T01:58:48;101938.44;;;23.53;44.39
64889;BME280;51386;53.082;8.816;2023-07-08T02:01:15;101941.56;;;23.50;44.41
64889;BME280;51386;53.082;8.816;2023-07-08T02:03:42;101936.44;;;23.48;44.55
64889;BME280;51386;53.082;8.816;2023-07-08T02:06:11;101936.63;;;23.47;44.74
64889;BME280;51386;53.082;8.816;2023-07-08T02:08:38;101937.72;;;23.46;44.50
64889;BME280;51386;53.082;8.816;2023-07-08T02:11:04;101933.38;;;23.45;44.57
64889;BME280;51386;53.082;8.816;2023-07-08T02:13:31;101936.50;;;23.42;44.65
64889;BME280;51386;53.082;8.816;2023-07-08T02:16:00;101942.38;;;23.39;44.50
64889;BME280;51386;53.082;8.816;2023-07-08T02:18:27;101934.75;;;23.36;44.70
64889;BME280;51386;53.082;8.816;2023-07-08T02:20:54;101934.13;;;23.34;44.78
64889;BME280;51386;53.082;8.816;2023-07-08T02:23:22;101922.56;;;23.33;44.85
64889;BME280;51386;53.082;8.816;2023-07-08T02:25:53;101932.47;;;23.33;44.68
64889;BME280;51386;53.082;8.816;2023-07-08T02:28:21;101936.25;;;23.32;44.77
64889;BME280;51386;53.082;8.816;2023-07-08T02:30:48;101937.50;;;23.29;45.14
64889;BME280;51386;53.082;8.816;2023-07-08T02:33:17;101940.19;;;23.29;45.12
64889;BME280;51386;53.082;8.816;2023-07-08T02:35:44;101937.28;;;23.31;45.20
64889;BME280;51386;53.082;8.816;2023-07-08T02:38:12;101939.50;;;23.34;45.29
64889;BME280;51386;53.082;8.816;2023-07-08T02:40:39;101936.16;;;23.38;44.83
64889;BME280;51386;53.082;8.816;2023-07-08T02:43:06;101927.03;;;23.39;45.02
64889;BME280;51386;53.082;8.816;2023-07-08T02:45:33;101931.97;;;23.42;44.97
64889;BME280;51386;53.082;8.816;2023-07-08T02:48:00;101920.97;;;23.44;44.89
64889;BME280;51386;53.082;8.816;2023-07-08T02:50:28;101933.59;;;23.43;44.80
64889;BME280;51386;53.082;8.816;2023-07-08T02:52:55;101929.03;;;23.44;44.86
64889;BME280;51386;53.082;8.816;2023-07-08T02:55:22;101931.97;;;23.42;44.86
64889;BME280;51386;53.082;8.816;2023-07-08T02:57:49;101925.75;;;23.42;44.72
64889;BME280;51386;53.082;8.816;2023-07-08T03:00:16;101929.50;;;23.41;44.60
64889;BME280;51386;53.082;8.816;2023-07-08T03:02:44;101925.63;;;23.37;44.63
64889;BME280;51386;53.082;8.816;2023-07-08T03:05:12;101920.13;;;23.32;44.88
64889;BME280;51386;53.082;8.816;2023-07-08T03:07:40;101919.50;;;23.30;44.88
64889;BME280;51386;53.082;8.816;2023-07-08T03:10:08;101914.38;;;23.28;45.24
64889;BME280;51386;53.082;8.816;2023-07-08T03:12:35;101912.72;;;23.27;45.17
64889;BME280;51386;53.082;8.816;2023-07-08T03:15:03;101914.00;;;23.25;45.18
64889;BME280;51386;53.082;8.816;2023-07-08T03:17:30;101917.97;;;23.22;45.05
64889;BME280;51386;53.082;8.816;2023-07-08T03:19:57;101916.56;;;23.20;45.14
64889;BME280;51386;53.082;8.816;2023-07-08T03:22:24;101910.56;;;23.18;45.47
64889;BME280;51386;53.082;8.816;2023-07-08T03:24:52;101913.25;;;23.18;45.33
64889;BME280;51386;53.082;8.816;2023-07-08T03:27:19;101914.91;;;23.19;45.36
64889;BME280;51386;53.082;8.816;2023-07-08T03:29:47;101914.91;;;23.19;45.51
64889;BME280;51386;53.082;8.816;2023-07-08T03:32:14;101920.28;;;23.19;45.45
64889;BME280;51386;53.082;8.816;2023-07-08T03:34:41;101919.84;;;23.22;45.22
64889;BME280;51386;53.082;8.816;2023-07-08T03:37:09;101916.09;;;23.23;45.20
64889;BME280;51386;53.082;8.816;2023-07-08T03:39:36;101916.09;;;23.23;45.32
64889;BME280;51386;53.082;8.816;2023-07-08T03:42:05;101915.28;;;23.22;45.22
64889;BME280;51386;53.082;8.816;2023-07-08T03:44:33;101916.31;;;23.21;45.31
64889;BME280;51386;53.082;8.816;2023-07-08T03:47:00;101926.50;;;23.19;45.29
64889;BME280;51386;53.082;8.816;2023-07-08T03:49:27;101929.03;;;23.14;45.33
64889;BME280;51386;53.082;8.816;2023-07-08T03:51:54;101924.78;;;23.07;45.05
64889;BME280;51386;53.082;8.816;2023-07-08T03:54:23;101919.75;;;22.99;45.05
64889;BME280;51386;53.082;8.816;2023-07-08T03:56:51;101925.56;;;22.96;45.46
64889;BME280;51386;53.082;8.816;2023-07-08T03:59:19;101919.25;;;22.90;45.95
64889;BME280;51386;53.082;8.816;2023-07-08T04:01:46;101913.72;;;22.85;46.05
64889;BME280;51386;53.082;8.816;2023-07-08T04:04:15;101912.53;;;22.81;46.24
64889;BME280;51386;53.082;8.816;2023-07-08T04:06:43;101912.16;;;22.77;46.17
64889;BME280;51386;53.082;8.816;2023-07-08T04:09:10;101911.81;;;22.74;45.90
64889;BME280;51386;53.082;8.816;2023-07-08T04:11:37;101914.72;;;22.72;46.28
64889;BME280;51386;53.082;8.816;2023-07-08T04:14:04;101916.34;;;22.73;46.60
64889;BME280;51386;53.082;8.816;2023-07-08T04:16:46;101919.28;;;22.72;46.72
64889;BME280;51386;53.082;8.816;2023-07-08T04:19:15;101912.16;;;22.77;46.68
64889;BME280;51386;53.082;8.816;2023-07-08T04:21:44;101913.81;;;22.78;46.38
64889;BME280;51386;53.082;8.816;2023-07-08T04:24:13;101912.16;;;22.77;46.34
64889;BME280;51386;53.082;8.816;2023-07-08T04:26:41;101903.53;;;22.75;46.31
64889;BME280;51386;53.082;8.816;2023-07-08T04:29:14;101901.91;;;22.74;46.23
64889;BME280;51386;53.082;8.816;2023-07-08T04:31:43;101904.34;;;22.76;46.08
64889;BME280;51386;53.082;8.816;2023-07-08T04:34:10;101914.84;;;22.77;46.54
64889;BME280;51386;53.082;8.816;2023-07-08T04:36:37;101910.09;;;22.79;46.45
64889;BME280;51386;53.082;8.816;2023-07-08T04:39:06;101911.50;;;22.82;46.29
64889;BME280;51386;53.082;8.816;2023-07-08T04:41:36;101920.31;;;22.89;46.34
64889;BME280;51386;53.082;8.816;2023-07-08T04:44:07;101923.09;;;22.94;46.30
64889;BME280;51386;53.082;8.816;2023-07-08T04:46:39;101920.34;;;23.01;46.10
64889;BME280;51386;53.082;8.816;2023-07-08T04:49:09;101912.63;;;23.04;45.86
64889;BME280;51386;53.082;8.816;2023-07-08T04:51:37;101907.66;;;23.08;45.52
64889;BME280;51386;53.082;8.816;2023-07-08T04:54:04;101921.44;;;23.11;45.86
64889;BME280;51386;53.082;8.816;2023-07-08T04:56:38;101907.16;;;23.11;45.76
64889;BME280;51386;53.082;8.816;2023-07-08T04:59:07;101912.09;;;23.14;45.77
64889;BME280;51386;53.082;8.816;2023-07-08T05:01:35;101900.91;;;23.17;45.88
64889;BME280;51386;53.082;8.816;2023-07-08T05:04:03;101907.44;;;23.21;45.43
64889;BME280;51386;53.082;8.816;2023-07-08T05:06:34;101904.06;;;23.25;45.58
64889;BME280;51386;53.082;8.816;2023-07-08T05:09:02;101909.81;;;23.29;45.33
64889;BME280;51386;53.082;8.816;2023-07-08T05:11:30;101905.59;;;23.33;45.40
64889;BME280;51386;53.082;8.816;2023-07-08T05:13:58;101908.47;;;23.38;45.37
64889;BME280;51386;53.082;8.816;2023-07-08T05:16:25;101909.63;;;23.42;45.24
64889;BME280;51386;53.082;8.816;2023-07-08T05:18:52;101910.81;;;23.46;45.10
64889;BME280;51386;53.082;8.816;2023-07-08T05:21:20;101912.00;;;23.50;44.91
64889;BME280;51386;53.082;8.816;2023-07-08T05:23:49;101910.94;;;23.51;44.90
64889;BME280;51386;53.082;8.816;2023-07-08T05:26:16;101902.19;;;23.55;44.77
64889;BME280;51386;53.082;8.816;2023-07-08T05:28:44;101906.28;;;23.58;44.83
64889;BME280;51386;53.082;8.816;2023-07-08T05:31:11;101902.66;;;23.64;44.82
64889;BME280;51386;53.082;8.816;2023-07-08T05:33:38;101905.94;;;23.66;44.79
64889;BME280;51386;53.082;8.816;2023-07-08T05:36:05;101908.75;;;23.71;44.78
64889;BME280;51386;53.082;8.816;2023-07-08T05:38:33;101913.19;;;23.77;44.62
64889;BME280;51386;53.082;8.816;2023-07-08T05:41:01;101906.91;;;23.83;44.53
64889;BME280;51386;53.082;8.816;2023-07-08T05:43:28;101902.69;;;23.87;44.35
64889;BME280;51386;53.082;8.816;2023-07-08T05:45:59;101906.06;;;23.94;44.17
64889;BME280;51386;53.082;8.816;2023-07-08T05:48:37;101902.47;;;24.00;43.97
64889;BME280;51386;53.082;8.816;2023-07-08T05:51:05;101907.97;;;24.05;44.20
64889;BME280;51386;53.082;8.816;2023-07-08T05:53:32;101899.78;;;24.12;44.00
64889;BME280;51386;53.082;8.816;2023-07-08T05:55:58;101905.88;;;24.19;43.99
64889;BME280;51386;53.082;8.816;2023-07-08T05:58:27;101905.72;;;24.26;44.03
64889;BME280;51386;53.082;8.816;2023-07-08T06:00:57;101901.50;;;24.30;44.04
64889;BME280;51386;53.082;8.816;2023-07-08T06:03:26;101903.50;;;24.34;44.09
64889;BME280;51386;53.082;8.816;2023-07-08T06:05:53;101896.34;;;24.40;43.92
64889;BME280;51386;53.082;8.816;2023-07-08T06:08:20;101902.09;;;24.43;43.72
64889;BME280;51386;53.082;8.816;2023-07-08T06:10:47;101901.69;;;24.51;43.75
64889;BME280;51386;53.082;8.816;2023-07-08T06:13:14;101907.53;;;24.60;43.40
64889;BME280;51386;53.082;8.816;2023-07-08T06:15:42;101905.28;;;24.68;43.00
64889;BME280;51386;53.082;8.816;2023-07-08T06:18:10;101907.66;;;24.76;43.02
64889;BME280;51386;53.082;8.816;2023-07-08T06:20:37;101904.91;;;24.88;43.09
64889;BME280;51386;53.082;8.816;2023-07-08T06:23:04;101909.66;;;24.98;43.36
64889;BME280;51386;53.082;8.816;2023-07-08T06:25:32;101910.66;;;25.08;42.46
64889;BME280;51386;53.082;8.816;2023-07-08T06:27:59;101901.06;;;25.12;43.06
64889;BME280;51386;53.082;8.816;2023-07-08T06:30:26;101897.94;;;25.20;43.02
64889;BME280;51386;53.082;8.816;2023-07-08T06:32:54;101896.16;;;25.26;42.90
64889;BME280;51386;53.082;8.816;2023-07-08T06:35:21;101893.56;;;25.31;42.40
64889;BME280;51386;53.082;8.816;2023-07-08T06:37:48;101896.56;;;25.34;42.28
64889;BME280;51386;53.082;8.816;2023-07-08T06:40:15;101907.78;;;25.43;42.33
64889;BME280;51386;53.082;8.816;2023-07-08T06:42:45;101906.09;;;25.53;42.66
64889;BME280;51386;53.082;8.816;2023-07-08T06:45:12;101897.03;;;25.60;42.47
64889;BME280;51386;53.082;8.816;2023-07-08T06:47:39;101894.16;;;25.66;41.79
64889;BME280;51386;53.082;8.816;2023-07-08T06:50:09;101886.72;;;25.73;41.47
64889;BME280;51386;53.082;8.816;2023-07-08T06:52:36;101888.75;;;25.83;42.08
64889;BME280;51386;53.082;8.816;2023-07-08T06:55:08;101882.13;;;25.90;41.37
64889;BME280;51386;53.082;8.816;2023-07-08T06:57:36;101889.56;;;26.00;41.78
64889;BME280;51386;53.082;8.816;2023-07-08T07:00:09;101889.72;;;26.10;41.56
64889;BME280;51386;53.082;8.816;2023-07-08T07:02:37;101886.03;;;26.16;41.11
64889;BME280;51386;53.082;8.816;2023-07-08T07:05:05;101890.41;;;26.22;41.80
64889;BME280;51386;53.082;8.816;2023-07-08T07:07:33;101888.94;;;26.31;40.81
64889;BME280;51386;53.082;8.816;2023-07-08T07:10:02;101892.56;;;26.42;41.18
64889;BME280;51386;53.082;8.816;2023-07-08T07:12:30;101889.09;;;26.46;40.70
64889;BME280;51386;53.082;8.816;2023-07-08T07:14:57;101885.97;;;26.54;40.94
64889;BME280;51386;53.082;8.816;2023-07-08T07:17:25;101888.81;;;26.64;40.89
64889;BME280;51386;53.082;8.816;2023-07-08T07:19:53;101892.22;;;26.76;40.28
64889;BME280;51386;53.082;8.816;2023-07-08T07:22:21;101888.28;;;26.89;40.32
64889;BME280;51386;53.082;8.816;2023-07-08T07:24:50;101886.25;;;27.01;39.71
64889;BME280;51386;53.082;8.816;2023-07-08T07:27:17;101883.66;;;27.11;39.39
64889;BME280;51386;53.082;8.816;2023-07-08T07:29:47;101880.78;;;27.23;39.41
64889;BME280;51386;53.082;8.816;2023-07-08T07:32:16;101875.16;;;27.29;39.62
64889;BME280;51386;53.082;8.816;2023-07-08T07:34:47;101881.50;;;27.40;38.93
64889;BME280;51386;53.082;8.816;2023-07-08T07:37:16;101874.53;;;27.49;38.95
64889;BME280;51386;53.082;8.816;2023-07-08T07:39:44;101872.97;;;27.58;39.31
64889;BME280;51386;53.082;8.816;2023-07-08T07:42:14;101872.00;;;27.69;38.88
64889;BME280;51386;53.082;8.816;2023-07-08T07:44:43;101869.34;;;27.79;38.60
64889;BME280;51386;53.082;8.816;2023-07-08T07:47:10;101865.09;;;27.88;38.62
64889;BME280;51386;53.082;8.816;2023-07-08T07:49:38;101872.44;;;27.98;38.51
64889;BME280;51386;53.082;8.816;2023-07-08T07:52:06;101863.56;;;28.02;38.68
64889;BME280;51386;53.082;8.816;2023-07-08T07:54:33;101867.41;;;28.11;38.29
64889;BME280;51386;53.082;8.816;2023-07-08T07:57:00;101873.41;;;28.18;37.76
64889;BME280;51386;53.082;8.816;2023-07-08T07:59:29;101872.63;;;28.28;37.67
64889;BME280;51386;53.082;8.816;2023-07-08T08:01:56;101872.38;;;28.35;37.47
64889;BME280;51386;53.082;8.816;2023-07-08T08:04:23;101869.16;;;28.43;37.31
64889;BME280;51386;53.082;8.816;2023-07-08T08:06:50;101865.94;;;28.51;37.43
64889;BME280;51386;53.082;8.816;2023-07-08T08:09:17;101860.00;;;28.59;37.15
64889;BME280;51386;53.082;8.816;2023-07-08T08:11:44;101870.34;;;28.62;37.35
64889;BME280;51386;53.082;8.816;2023-07-08T08:14:11;101871.97;;;28.63;37.51
64889;BME280;51386;53.082;8.816;2023-07-08T08:16:39;101864.94;;;28.77;37.42
64889;BME280;51386;53.082;8.816;2023-07-08T08:19:06;101866.69;;;29.28;36.58
64889;BME280;51386;53.082;8.816;2023-07-08T08:21:35;101870.03;;;30.40;34.93
64889;BME280;51386;53.082;8.816;2023-07-08T08:24:02;101874.16;;;31.82;33.11
64889;BME280;51386;53.082;8.816;2023-07-08T08:26:29;101865.34;;;33.31;31.41
64889;BME280;51386;53.082;8.816;2023-07-08T08:28:57;101871.53;;;34.64;29.34
64889;BME280;51386;53.082;8.816;2023-07-08T08:31:24;101862.03;;;35.72;27.27
64889;BME280;51386;53.082;8.816;2023-07-08T08:33:53;101867.47;;;36.85;26.55
64889;BME280;51386;53.082;8.816;2023-07-08T08:36:20;101865.28;;;37.97;24.25
64889;BME280;51386;53.082;8.816;2023-07-08T08:38:47;101867.97;;;38.85;23.57
64889;BME280;51386;53.082;8.816;2023-07-08T08:41:18;101866.44;;;39.85;22.62
64889;BME280;51386;53.082;8.816;2023-07-08T08:43:48;101861.28;;;40.72;21.20
64889;BME280;51386;53.082;8.816;2023-07-08T08:46:27;101863.25;;;41.27;19.87
64889;BME280;51386;53.082;8.816;2023-07-08T08:49:05;101860.13;;;41.60;20.05
64889;BME280;51386;53.082;8.816;2023-07-08T08:51:34;101857.91;;;41.81;19.76
64889;BME280;51386;53.082;8.816;2023-07-08T08:54:01;101854.09;;;42.20;19.37
64889;BME280;51386;53.082;8.816;2023-07-08T08:56:35;101846.00;;;42.66;18.87
64889;BME280;51386;53.082;8.816;2023-07-08T08:59:11;101843.31;;;43.11;18.94
64889;BME280;51386;53.082;8.816;2023-07-08T09:01:40;101847.75;;;43.57;18.48
64889;BME280;51386;53.082;8.816;2023-07-08T09:04:15;101845.78;;;44.07;17.61
64889;BME280;51386;53.082;8.816;2023-07-08T09:06:44;101837.44;;;44.66;17.30
64889;BME280;51386;53.082;8.816;2023-07-08T09:09:19;101848.38;;;45.22;17.38
64889;BME280;51386;53.082;8.816;2023-07-08T09:11:55;101839.09;;;45.48;17.05
64889;BME280;51386;53.082;8.816;2023-07-08T09:14:26;101838.84;;;45.67;16.18
64889;BME280;51386;53.082;8.816;2023-07-08T09:17:08;101839.47;;;45.97;16.38
64889;BME280;51386;53.082;8.816;2023-07-08T09:19:42;101848.84;;;46.37;15.64
64889;BME280;51386;53.082;8.816;2023-07-08T09:22:17;101837.78;;;46.58;15.37
64889;BME280;51386;53.082;8.816;2023-07-08T09:24:51;101833.50;;;46.92;15.48
64889;BME280;51386;53.082;8.816;2023-07-08T09:27:20;101839.16;;;47.20;15.33
64889;BME280;51386;53.082;8.816;2023-07-08T09:29:47;101827.22;;;47.51;15.16
64889;BME280;51386;53.082;8.816;2023-07-08T09:32:20;101835.16;;;47.60;14.64
64889;BME280;51386;53.082;8.816;2023-07-08T09:34:51;101829.16;;;47.76;14.83
64889;BME280;51386;53.082;8.816;2023-07-08T09:37:26;101833.56;;;47.70;14.42
64889;BME280;51386;53.082;8.816;2023-07-08T09:39:55;101826.38;;;47.90;14.70
64889;BME280;51386;53.082;8.816;2023-07-08T09:42:30;101834.69;;;48.18;14.00
64889;BME280;51386;53.082;8.816;2023-07-08T09:45:00;101838.25;;;48.26;14.10
64889;BME280;51386;53.082;8.816;2023-07-08T09:47:37;101827.38;;;48.49;13.94
64889;BME280;51386;53.082;8.816;2023-07-08T09:50:17;101832.38;;;48.82;13.38
64889;BME280;51386;53.082;8.816;2023-07-08T09:52:46;101832.56;;;49.12;13.91
64889;BME280;51386;53.082;8.816;2023-07-08T09:55:14;101826.28;;;49.49;13.65
64889;BME280;51386;53.082;8.816;2023-07-08T09:57:44;101829.63;;;49.74;12.41
64889;BME280;51386;53.082;8.816;2023-07-08T10:00:15;101827.69;;;49.71;12.15
64889;BME280;51386;53.082;8.816;2023-07-08T10:02:46;101832.44;;;49.74;12.48
64889;BME280;51386;53.082;8.816;2023-07-08T10:05:23;101833.38;;;50.01;12.28
64889;BME280;51386;53.082;8.816;2023-07-08T10:07:56;101832.47;;;50.42;12.66
64889;BME280;51386;53.082;8.816;2023-07-08T10:10:31;101829.75;;;50.65;12.02
64889;BME280;51386;53.082;8.816;2023-07-08T10:13:04;101828.38;;;50.76;11.91
64889;BME280;51386;53.082;8.816;2023-07-08T10:15:39;101825.66;;;51.00;11.88
64889;BME280;51386;53.082;8.816;2023-07-08T10:18:14;101824.84;;;50.99;10.94
64889;BME280;51386;53.082;8.816;2023-07-08T10:20:54;101824.59;;;50.90;11.51
64889;BME280;51386;53.082;8.816;2023-07-08T10:23:41;101815.25;;;50.70;11.46
64889;BME280;51386;53.082;8.816;2023-07-08T10:26:20;101819.91;;;50.23;10.94
64889;BME280;51386;53.082;8.816;2023-07-08T10:29:11;101822.53;;;50.03;11.51
64889;BME280;51386;53.082;8.816;2023-07-08T10:31:53;101812.81;;;50.11;11.93
64889;BME280;51386;53.082;8.816;2023-07-08T10:34:37;101810.34;;;49.42;12.50
64889;BME280;51386;53.082;8.816;2023-07-08T10:37:22;101814.97;;;48.53;12.96
64889;BME280;51386;53.082;8.816;2023-07-08T10:40:18;101810.81;;;47.04;13.91
64889;BME280;51386;53.082;8.816;2023-07-08T10:43:08;101810.63;;;45.72;14.04
64889;BME280;51386;53.082;8.816;2023-07-08T10:45:51;101799.16;;;44.53;15.74
64889;BME280;51386;53.082;8.816;2023-07-08T10:48:46;101800.66;;;43.38;16.82
64889;BME280;51386;53.082;8.816;2023-07-08T10:51:25;101799.41;;;42.52;17.46
64889;BME280;51386;53.082;8.816;2023-07-08T10:54:28;101796.22;;;41.65;18.13
64889;BME280;51386;53.082;8.816;2023-07-08T10:57:20;101801.47;;;41.07;18.40
64889;BME280;51386;53.082;8.816;2023-07-08T11:00:02;101798.41;;;40.69;17.97
64889;BME280;51386;53.082;8.816;2023-07-08T11:02:55;101798.78;;;40.16;17.59
64889;BME280;51386;53.082;8.816;2023-07-08T11:05:36;101797.91;;;39.63;18.43
64889;BME280;51386;53.082;8.816;2023-07-08T11:08:14;101797.53;;;39.53;19.56
64889;BME280;51386;53.082;8.816;2023-07-08T11:10:53;101793.28;;;39.43;19.70
64889;BME280;51386;53.082;8.816;2023-07-08T11:13:45;101792.31;;;39.15;19.00
64889;BME280;51386;53.082;8.816;2023-07-08T11:16:22;101786.03;;;38.82;18.49
64889;BME280;51386;53.082;8.816;2023-07-08T11:18:57;101791.47;;;38.49;18.90
64889;BME280;51386;53.082;8.816;2023-07-08T11:21:36;101791.97;;;38.01;19.18
64889;BME280;51386;53.082;8.816;2023-07-08T11:24:14;101785.69;;;37.63;20.36
64889;BME280;51386;53.082;8.816;2023-07-08T11:26:53;101776.44;;;37.38;20.19
64889;BME280;51386;53.082;8.816;2023-07-08T11:29:37;101779.72;;;37.14;19.42
64889;BME280;51386;53.082;8.816;2023-07-08T11:32:09;101776.06;;;36.93;20.22
64889;BME280;51386;53.082;8.816;2023-07-08T11:34:41;101774.25;;;36.80;19.90
64889;BME280;51386;53.082;8.816;2023-07-08T11:37:10;101779.28;;;36.78;20.72
64889;BME280;51386;53.082;8.816;2023-07-08T11:39:43;101774.44;;;36.75;20.54
64889;BME280;51386;53.082;8.816;2023-07-08T11:42:22;101772.69;;;36.62;20.62
64889;BME280;51386;53.082;8.816;2023-07-08T11:44:54;101773.16;;;36.47;20.71
64889;BME280;51386;53.082;8.816;2023-07-08T11:47:38;101769.28;;;36.65;21.40
64889;BME280;51386;53.082;8.816;2023-07-08T11:50:19;101766.34;;;36.87;20.34
64889;BME280;51386;53.082;8.816;2023-07-08T11:52:54;101757.41;;;37.16;20.35
64889;BME280;51386;53.082;8.816;2023-07-08T11:55:25;101761.25;;;37.23;19.93
64889;BME280;51386;53.082;8.816;2023-07-08T11:58:00;101759.47;;;37.27;20.53
64889;BME280;51386;53.082;8.816;2023-07-08T12:00:31;101748.19;;;37.20;20.24
64889;BME280;51386;53.082;8.816;2023-07-08T12:03:19;101751.47;;;37.05;20.56
64889;BME280;51386;53.082;8.816;2023-07-08T12:05:46;101751.00;;;37.03;20.94
64889;BME280;51386;53.082;8.816;2023-07-08T12:08:18;101753.56;;;37.00;21.01
64889;BME280;51386;53.082;8.816;2023-07-08T12:10:49;101744.72;;;36.94;20.56
64889;BME280;51386;53.082;8.816;2023-07-08T12:13:23;101748.91;;;36.83;20.78
64889;BME280;51386;53.082;8.816;2023-07-08T12:15:51;101752.78;;;36.82;21.29
64889;BME280;51386;53.082;8.816;2023-07-08T12:18:22;101747.31;;;36.74;20.40
64889;BME280;51386;53.082;8.816;2023-07-08T12:20:55;101737.16;;;36.65;20.61
64889;BME280;51386;53.082;8.816;2023-07-08T12:23:25;101740.22;;;36.64;20.88
64889;BME280;51386;53.082;8.816;2023-07-08T12:25:54;101735.53;;;36.64;20.61
64889;BME280;51386;53.082;8.816;2023-07-08T12:28:24;101746.50;;;36.64;20.15
64889;BME280;51386;53.082;8.816;2023-07-08T12:30:52;101732.81;;;36.56;19.37
64889;BME280;51386;53.082;8.816;2023-07-08T12:33:28;101737.66;;;36.42;19.58
64889;BME280;51386;53.082;8.816;2023-07-08T12:35:56;101738.91;;;36.36;19.92
64889;BME280;51386;53.082;8.816;2023-07-08T12:38:34;101728.25;;;36.43;19.99
64889;BME280;51386;53.082;8.816;2023-07-08T12:41:10;101727.97;;;36.53;20.00
64889;BME280;51386;53.082;8.816;2023-07-08T12:43:39;101726.66;;;36.59;20.36
64889;BME280;51386;53.082;8.816;2023-07-08T12:46:09;101731.81;;;36.69;20.57
64889;BME280;51386;53.082;8.816;2023-07-08T12:48:39;101728.91;;;36.74;20.38
64889;BME280;51386;53.082;8.816;2023-07-08T12:51:12;101718.22;;;36.81;20.28
64889;BME280;51386;53.082;8.816;2023-07-08T12:53:40;101715.44;;;36.90;19.89
64889;BME280;51386;53.082;8.816;2023-07-08T12:56:07;101724.22;;;36.92;19.62
64889;BME280;51386;53.082;8.816;2023-07-08T12:58:40;101719.16;;;36.85;20.14
64889;BME280;51386;53.082;8.816;2023-07-08T13:01:16;101722.09;;;36.80;19.65
64889;BME280;51386;53.082;8.816;2023-07-08T13:03:47;101725.69;;;36.72;19.30
64889;BME280;51386;53.082;8.816;2023-07-08T13:06:20;101731.81;;;36.69;20.37
64889;BME280;51386;53.082;8.816;2023-07-08T13:08:48;101725.19;;;36.70;20.14